Flight Track Log - Related Links

Times and Time Zones

All times are in EST time to prevent confusion due to time zone crossing. See the FIN664 flight status page for this flight to view local times or setup timezone preferences in your user account.


Time Position Orientation Groundspeed Altitude Reporting Facility
EST Latitude Longitude Course Direction KTS MPH feet Rate Location/Type
Fri 11:10:00 AM 55.9164 13.2747 49° Northeast  Level Estimated
Fri 11:11:00 AM 55.9905 13.4309 50° Northeast  Level Estimated
Fri 11:12:00 AM 56.0655 13.5900 50° Northeast  Level Estimated
Fri 11:13:00 AM 56.1403 13.7496 50° Northeast  Level Estimated
Fri 11:14:00 AM 56.2148 13.9099 50° Northeast  Level Estimated
Fri 11:15:00 AM 56.2824 14.0560 50° Northeast  Level Estimated
Fri 11:16:00 AM 56.3497 14.2026 50° Northeast  Level Estimated
Fri 11:17:00 AM 56.4169 14.3497 50° Northeast  Level Estimated
Fri 11:18:00 AM 56.4839 14.4973 51° Northeast  Level Estimated
Fri 11:19:00 AM 56.5508 14.6455 51° Northeast  Level Estimated
Fri 11:20:00 AM 56.6174 14.7942 51° Northeast  Level Estimated
Fri 11:21:00 AM 56.6839 14.9434 51° Northeast  Level Estimated
Fri 11:22:00 AM 56.7502 15.0931 51° Northeast  Level Estimated
Fri 11:23:00 AM 56.8163 15.2433 51° Northeast  Level Estimated
Fri 11:24:00 AM 56.8823 15.3941 51° Northeast  Level Estimated
Fri 11:25:00 AM 56.9480 15.5454 51° Northeast  Level Estimated
Fri 11:26:00 AM 57.0136 15.6973 52° Northeast  Level Estimated
Fri 11:27:00 AM 57.0790 15.8497 52° Northeast  Level Estimated
Fri 11:28:00 AM 57.1442 16.0026 52° Northeast  Level Estimated
Fri 11:29:00 AM 57.2092 16.1560 52° Northeast  Level Estimated
Fri 11:30:00 AM 57.2741 16.3100 52° Northeast  Level Estimated
Fri 11:31:00 AM 57.3442 16.4778 52° Northeast  Level Estimated
Fri 11:32:00 AM 57.4142 16.6463 52° Northeast  Level Estimated
Fri 11:33:00 AM 57.4839 16.8154 52° Northeast  Level Estimated
Fri 11:34:00 AM 57.5534 16.9852 53° Northeast  Level Estimated
Fri 11:35:00 AM 57.6227 17.1556 53° Northeast  Level Estimated
Fri 11:36:00 AM 57.6917 17.3266 53° Northeast  Level Estimated
Fri 11:37:00 AM 57.7605 17.4983 53° Northeast  Level Estimated
Fri 11:38:00 AM 57.8291 17.6706 53° Northeast  Level Estimated
Fri 11:39:00 AM 57.8974 17.8437 53° Northeast  Level Estimated
Fri 11:40:00 AM 57.9655 18.0173 53° Northeast  Level Estimated
Fri 11:41:00 AM 58.0334 18.1916 54° Northeast  Level Estimated
Fri 11:42:00 AM 58.1010 18.3666 54° Northeast  Level Estimated
Fri 11:43:00 AM 58.1684 18.5423 54° Northeast  Level Estimated
Fri 11:44:00 AM 58.2356 18.7186 54° Northeast  Level Estimated
Fri 11:45:00 AM 58.3025 18.8956 54° Northeast  Level Estimated
Fri 11:46:00 AM 58.3691 19.0732 54° Northeast  Level Estimated
Fri 11:47:00 AM 58.4355 19.2515 55° Northeast  Level Estimated
Fri 11:48:00 AM 58.5017 19.4305 55° Northeast  Level Estimated
Fri 11:49:00 AM 58.5676 19.6102 55° Northeast  Level Estimated
Fri 11:50:00 AM 58.6333 19.7906 55° Northeast  Level Estimated
Fri 11:51:00 AM 58.6987 19.9716 55° Northeast  Level Estimated
Fri 11:52:00 AM 58.7638 20.1533 55° Northeast  Level Estimated
Fri 11:53:00 AM 58.8287 20.3357 55° Northeast  Level Estimated
Fri 11:54:00 AM 58.8933 20.5188 56° Northeast  Level Estimated
Fri 11:55:00 AM 58.9577 20.7025 56° Northeast  Level Estimated
Fri 11:56:00 AM 59.0218 20.8869 56° Northeast  Level Estimated
Fri 11:57:00 AM 59.0857 21.0721 56° Northeast  Level Estimated
Fri 11:58:00 AM 59.1493 21.2579 56° Northeast  Level Estimated
Fri 11:59:00 AM 59.2117 21.4418 56° Northeast  Level Estimated
Fri 12:00:00 PM 59.2739 21.6263 57° Northeast  Level Estimated
Fri 12:01:00 PM 59.3358 21.8115 57° Northeast  Level Estimated
Fri 12:02:00 PM 59.3974 21.9974 57° Northeast  Level Estimated
Fri 12:03:00 PM 59.4588 22.1840 57° Northeast  Level Estimated
Fri 12:04:00 PM 59.5199 22.3713 57° Northeast  Level Estimated
Fri 12:05:00 PM 59.5807 22.5592 57° Northeast  Level Estimated
Fri 12:06:00 PM 59.6413 22.7478 58° Northeast  Level Estimated
Fri 12:07:00 PM 59.7016 22.9371 58° Northeast  Level Estimated
Fri 12:08:00 PM 59.7616 23.1271 58° Northeast  Level Estimated
Fri 12:09:00 PM 59.8259 23.3322 58° Northeast  Level Estimated
Fri 12:10:00 PM 59.8899 23.5381 58° Northeast  Level Estimated
Fri 12:11:00 PM 59.9535 23.7448 58° Northeast  Level Estimated
Fri 12:12:00 PM 60.0168 23.9523 59° Northeast  Level Estimated
Fri 12:13:00 PM 60.0798 24.1606 59° Northeast  Level Estimated
Fri 12:14:00 PM 60.1424 24.3697 59° Northeast  Level Estimated
Fri 12:15:00 PM 60.2047 24.5795 59° Northeast  Level Estimated
Fri 12:16:00 PM 60.2667 24.7902 59° Northeast  Level Estimated
Fri 12:17:00 PM 60.3172 24.9633 59° Northeast  Level Estimated
Fri 12:18:00 PM 60.3172 24.9633 37° Northeast  Level Estimated
Fri 12:19:00 PM 60.3172 24.9633 37° Northeast  Level Estimated
Fri 12:20:00 PM 60.3172 24.9633 37° Northeast  Level Estimated
Fri 12:21:00 PM 60.3172 24.9633 37° Northeast  Level Estimated
Fri 12:22:00 PM 60.3172 24.9633 37° Northeast  Level Estimated

Login

Don't have an account? Register now (free) for customized features, flight alerts, and more!